Time;durP1;ratioP1;P1;durP2;ratioP2;P2;SDS_P1;SDS_P2;PMS_P1;PMS_P2;Temp;Humidity;BMP_temperature;BMP_pressure;BME280_temperature;BME280_humidity;BME280_pressure;Samples;Min_cycle;Max_cycle;Signal;HPM_P1;HPM_P2
2022/12/17 13:13:55;;;;;;;11.77;9.18;;;13.20;71.20;;;;;;21258210;27;20055;-60
2022/12/17 13:23:57;;;;;;;11.63;7.28;;;13.20;69.90;;;;;;21257246;27;20079;-60
2022/12/17 13:34:39;;;;;;;9.85;7.13;;;13.20;68.80;;;;;;21256681;27;20050;-59
2022/12/17 13:44:44;;;;;;;7.00;5.40;;;13.30;68.00;;;;;;21255947;27;20058;-58
2022/12/17 13:54:46;;;;;;;8.80;5.53;;;13.30;67.00;;;;;;21255275;27;20047;-59
2022/12/17 14:04:54;;;;;;;10.63;6.55;;;13.40;65.60;;;;;;21255181;27;20589;-59
2022/12/17 14:15:07;;;;;;;9.20;5.90;;;13.40;66.90;;;;;;21253662;27;20039;-60
2022/12/17 14:25:20;;;;;;;6.28;4.78;;;13.40;66.60;;;;;;21253530;27;20129;-61
2022/12/17 14:35:25;;;;;;;6.95;4.63;;;13.40;66.60;;;;;;21251614;27;20054;-59
2022/12/17 14:45:28;;;;;;;7.85;5.82;;;13.40;66.50;;;;;;21250353;27;20487;-59
2022/12/17 14:55:53;;;;;;;8.73;5.45;;;13.50;66.60;;;;;;21231875;27;20561;-59
2022/12/17 15:06:01;;;;;;;6.68;3.92;;;13.70;65.90;;;;;;21249488;27;20093;-60
2022/12/17 15:16:04;;;;;;;6.20;5.03;;;13.70;65.70;;;;;;21248366;27;20061;-60
2022/12/17 15:26:08;;;;;;;9.45;5.70;;;13.70;65.20;;;;;;21248137;27;20396;-59
2022/12/17 15:36:10;;;;;;;6.78;5.25;;;13.60;65.50;;;;;;21245898;28;20051;-60
2022/12/17 15:46:13;;;;;;;7.25;3.75;;;13.60;66.40;;;;;;21246313;27;20095;-60
2022/12/17 15:56:22;;;;;;;6.55;3.90;;;13.70;65.80;;;;;;21263125;27;20055;-61
2022/12/17 16:06:25;;;;;;;6.82;4.88;;;13.70;65.30;;;;;;21263962;27;20080;-61
2022/12/17 16:16:29;;;;;;;7.90;4.60;;;13.70;65.70;;;;;;21264057;27;20074;-60
2022/12/17 16:26:32;;;;;;;7.40;5.20;;;13.70;65.70;;;;;;21262137;27;20051;-60
2022/12/17 16:36:34;;;;;;;8.32;4.80;;;13.70;66.10;;;;;;21261514;27;20043;-61
2022/12/17 16:46:38;;;;;;;6.82;4.45;;;13.70;66.40;;;;;;21261078;27;20055;-61
2022/12/17 16:56:41;;;;;;;7.73;4.90;;;13.60;66.40;;;;;;21260347;27;20452;-59
2022/12/17 17:06:51;;;;;;;9.95;6.43;;;13.60;66.80;;;;;;21258804;27;20402;-61
2022/12/17 17:16:54;;;;;;;8.40;4.78;;;13.50;67.00;;;;;;21258501;27;20039;-60
2022/12/17 17:26:56;;;;;;;7.65;5.22;;;13.40;67.40;;;;;;21267551;27;20235;-59
2022/12/17 17:36:58;;;;;;;13.30;8.80;;;13.40;67.70;;;;;;21267008;27;20119;-61
2022/12/17 17:47:01;;;;;;;8.90;5.75;;;13.40;68.40;;;;;;21256689;27;20047;-61
2022/12/17 17:57:03;;;;;;;8.02;5.60;;;13.40;68.80;;;;;;21254845;27;20047;-62
2022/12/17 18:07:05;;;;;;;8.35;5.45;;;13.40;69.40;;;;;;21254787;27;20496;-60
2022/12/17 18:17:06;;;;;;;14.70;9.20;;;13.30;69.80;;;;;;21234765;27;20054;-60
2022/12/17 18:27:08;;;;;;;15.95;9.00;;;13.30;70.10;;;;;;21252824;27;20444;-61
2022/12/17 18:37:09;;;;;;;13.10;8.15;;;13.30;70.30;;;;;;21251233;27;20053;-60
2022/12/17 18:47:11;;;;;;;10.57;7.38;;;13.20;70.60;;;;;;21251299;27;20065;-62
2022/12/17 18:57:13;;;;;;;10.98;8.10;;;13.30;70.80;;;;;;21250236;27;20144;-64
2022/12/17 19:07:15;;;;;;;9.57;6.47;;;13.20;71.10;;;;;;21250269;27;20047;-61
2022/12/17 19:17:16;;;;;;;12.05;7.88;;;13.20;71.70;;;;;;21248729;27;20055;-62
2022/12/17 19:27:18;;;;;;;10.20;6.75;;;13.20;72.30;;;;;;21248400;27;20055;-62
2022/12/17 19:37:19;;;;;;;10.43;8.07;;;13.10;72.70;;;;;;21249365;28;20551;-65
2022/12/17 19:47:24;;;;;;;13.18;8.98;;;13.10;73.40;;;;;;21249201;28;20050;-61
2022/12/17 19:57:25;;;;;;;20.87;15.37;;;13.10;73.90;;;;;;21247066;28;20052;-60
2022/12/17 20:07:27;;;;;;;10.98;8.70;;;13.00;74.60;;;;;;21246917;28;20201;-61
2022/12/17 20:17:28;;;;;;;16.48;9.73;;;13.10;74.90;;;;;;21246201;28;20092;-59
2022/12/17 20:27:30;;;;;;;18.08;11.35;;;12.70;76.00;;;;;;21245503;28;20432;-61
2022/12/17 20:37:32;;;;;;;16.10;10.80;;;12.70;76.20;;;;;;21254846;27;20129;-61
2022/12/17 20:47:34;;;;;;;16.00;10.50;;;12.70;76.40;;;;;;21261913;27;20051;-63
2022/12/17 20:57:36;;;;;;;18.13;12.20;;;12.70;76.60;;;;;;21260370;27;20495;-60
2022/12/17 21:07:37;;;;;;;18.73;12.48;;;12.70;77.10;;;;;;21259624;27;20414;-60
2022/12/17 21:17:40;;;;;;;20.10;12.45;;;12.70;77.10;;;;;;21258241;27;20131;-61
2022/12/17 21:27:43;;;;;;;19.48;12.07;;;12.60;77.20;;;;;;21258609;27;20054;-60
2022/12/17 21:37:45;;;;;;;21.10;14.35;;;12.60;77.30;;;;;;21256956;27;20460;-59
2022/12/17 21:47:47;;;;;;;22.05;14.52;;;12.50;77.80;;;;;;21256834;27;20051;-60
2022/12/17 21:57:50;;;;;;;20.27;14.27;;;12.40;78.10;;;;;;21256235;27;20055;-60
2022/12/17 22:07:53;;;;;;;22.45;16.02;;;12.40;78.20;;;;;;21257003;27;20499;-60
2022/12/17 22:17:56;;;;;;;25.55;17.45;;;12.20;78.60;;;;;;21255626;27;20047;-59
2022/12/17 22:27:58;;;;;;;26.58;17.85;;;12.10;79.30;;;;;;21252991;27;20099;-62
2022/12/17 22:38:03;;;;;;;24.95;16.92;;;12.10;79.50;;;;;;21252289;27;20126;-59
2022/12/17 22:48:07;;;;;;;29.87;17.70;;;12.00;79.70;;;;;;21251272;27;20047;-62
2022/12/17 22:58:10;;;;;;;29.60;18.63;;;11.80;80.10;;;;;;21233282;27;20047;-60
2022/12/17 23:08:13;;;;;;;23.65;14.93;;;11.80;80.00;;;;;;21232943;27;20051;-60
2022/12/17 23:18:15;;;;;;;20.38;14.30;;;11.80;79.70;;;;;;21249696;27;20043;-60
2022/12/17 23:28:18;;;;;;;33.30;20.75;;;11.80;79.30;;;;;;21255256;27;20106;-61
2022/12/17 23:38:19;;;;;;;28.90;18.00;;;11.70;79.40;;;;;;21250372;27;20086;-60
2022/12/17 23:48:22;;;;;;;26.23;16.83;;;11.70;79.70;;;;;;21250097;28;20054;-59
2022/12/17 23:58:24;;;;;;;22.40;16.70;;;11.60;79.90;;;;;;21248050;27;20520;-60
